createdAt,value
2018-05-10T00:00:55.066Z,60.00
2018-05-10T00:03:27.991Z,60.10
2018-05-10T00:06:02.227Z,60.40
2018-05-10T00:08:36.986Z,60.40
2018-05-10T00:11:07.222Z,61.00
2018-05-10T00:13:37.620Z,61.40
2018-05-10T00:16:08.094Z,63.30
2018-05-10T00:18:38.239Z,64.30
2018-05-10T00:21:09.623Z,62.70
2018-05-10T00:23:40.063Z,62.70
2018-05-10T00:26:10.680Z,62.20
2018-05-10T00:28:41.685Z,63.30
2018-05-10T00:31:12.270Z,60.70
2018-05-10T00:33:43.818Z,61.90
2018-05-10T00:36:14.025Z,61.90
2018-05-10T00:38:44.118Z,61.90
2018-05-10T00:41:15.763Z,64.30
2018-05-10T00:43:47.195Z,65.20
2018-05-10T00:46:18.032Z,65.20
2018-05-10T00:48:48.755Z,64.60
2018-05-10T00:51:19.187Z,63.80
2018-05-10T00:53:49.706Z,63.40
2018-05-10T00:56:20.336Z,63.90
2018-05-10T00:58:50.872Z,63.60
2018-05-10T01:01:21.048Z,63.50
2018-05-10T01:03:51.833Z,63.50
2018-05-10T01:06:21.959Z,63.80
2018-05-10T01:08:52.517Z,63.70
2018-05-10T01:11:23.119Z,63.40
2018-05-10T01:13:53.334Z,63.10
2018-05-10T01:16:23.918Z,63.30
2018-05-10T01:18:55.411Z,62.80
2018-05-10T01:21:26.023Z,62.80
2018-05-10T01:23:57.783Z,62.70
2018-05-10T01:26:28.371Z,63.20
2018-05-10T01:28:58.971Z,63.60
2018-05-10T01:31:29.621Z,62.70
2018-05-10T01:33:59.986Z,62.90
2018-05-10T01:36:30.567Z,63.20
2018-05-10T01:39:01.131Z,63.40
2018-05-10T01:41:32.218Z,63.20
2018-05-10T01:44:02.771Z,63.20
2018-05-10T01:46:33.105Z,63.20
2018-05-10T01:49:03.712Z,62.90
2018-05-10T01:51:35.118Z,63.00
2018-05-10T01:54:05.522Z,63.40
2018-05-10T01:56:35.947Z,63.50
2018-05-10T01:59:06.722Z,63.50
2018-05-10T02:01:37.079Z,63.50
2018-05-10T02:04:09.045Z,63.40
2018-05-10T02:06:41.178Z,63.50
2018-05-10T02:09:11.251Z,63.40
2018-05-10T02:11:41.680Z,63.20
2018-05-10T02:14:12.145Z,63.20
2018-05-10T02:16:43.436Z,63.80
2018-05-10T02:19:13.830Z,63.80
2018-05-10T02:21:44.179Z,63.50
2018-05-10T02:24:14.232Z,63.20
2018-05-10T02:26:44.675Z,63.90
2018-05-10T02:29:15.039Z,63.90
2018-05-10T02:31:45.300Z,66.00
2018-05-10T02:34:15.756Z,67.90
2018-05-10T02:36:46.407Z,67.80
2018-05-10T02:39:16.714Z,67.20
2018-05-10T02:41:47.409Z,67.20
2018-05-10T02:44:17.709Z,67.20
2018-05-10T02:46:48.709Z,66.80
2018-05-10T02:49:19.096Z,67.80
2018-05-10T02:51:49.707Z,67.80
2018-05-10T02:54:21.547Z,67.20
2018-05-10T02:56:53.806Z,66.70
2018-05-10T02:59:24.294Z,66.70
2018-05-10T03:01:54.887Z,66.10
2018-05-10T03:04:28.941Z,66.20
2018-05-10T03:07:02.330Z,65.70
2018-05-10T03:09:32.906Z,67.60
2018-05-10T03:12:04.678Z,65.70
2018-05-10T03:14:35.778Z,67.80
2018-05-10T03:17:07.965Z,66.00
2018-05-10T03:19:38.337Z,68.40
2018-05-10T03:22:08.953Z,68.80
2018-05-10T03:24:40.021Z,68.30
2018-05-10T03:27:10.358Z,68.30
2018-05-10T03:29:40.867Z,67.50
2018-05-10T03:32:11.594Z,68.00
2018-05-10T03:34:41.995Z,69.80
2018-05-10T03:37:13.854Z,70.30
2018-05-10T03:39:44.372Z,70.20
2018-05-10T03:42:15.615Z,72.50
2018-05-10T03:44:46.105Z,72.20
2018-05-10T03:47:16.213Z,70.80
2018-05-10T03:49:47.677Z,73.60
2018-05-10T03:52:18.655Z,73.60
2018-05-10T03:54:49.095Z,72.60
2018-05-10T03:57:19.653Z,71.70
2018-05-10T03:59:50.344Z,71.40
2018-05-10T04:02:25.200Z,73.60
2018-05-10T04:09:12.791Z,74.60
2018-05-10T04:11:43.524Z,74.60
2018-05-10T04:14:14.268Z,73.30
2018-05-10T04:16:44.620Z,75.00
2018-05-10T04:19:15.323Z,76.80
2018-05-10T04:21:45.840Z,77.40
2018-05-10T04:24:17.073Z,75.70
2018-05-10T04:26:50.075Z,75.20
2018-05-10T04:29:21.191Z,75.30
2018-05-10T04:31:51.774Z,76.00
2018-05-10T04:34:22.325Z,75.00
2018-05-10T04:36:52.807Z,75.50
2018-05-10T04:39:24.029Z,76.60
2018-05-10T04:41:55.488Z,76.60
2018-05-10T04:44:26.588Z,75.70
2018-05-10T04:46:56.935Z,75.70
2018-05-10T04:49:27.302Z,76.30
2018-05-10T04:51:57.763Z,76.70
2018-05-10T04:54:28.392Z,76.60
2018-05-10T04:56:58.730Z,76.00
2018-05-10T04:59:29.306Z,76.20
2018-05-10T05:02:00.944Z,76.20
2018-05-10T05:04:31.484Z,76.20
2018-05-10T05:07:02.185Z,75.10
2018-05-10T05:09:32.475Z,73.10
2018-05-10T05:12:02.821Z,73.00
2018-05-10T05:14:33.797Z,72.50
2018-05-10T05:17:04.493Z,72.50
2018-05-10T05:19:36.115Z,72.10
2018-05-10T05:22:07.258Z,72.40
2018-05-10T05:24:38.690Z,69.90
2018-05-10T05:27:09.471Z,69.80
2018-05-10T05:29:39.998Z,71.30
2018-05-10T05:32:10.453Z,70.00
2018-05-10T05:34:41.267Z,67.80
2018-05-10T05:37:11.515Z,66.70
2018-05-10T05:39:42.097Z,66.30
2018-05-10T05:42:13.188Z,63.00
2018-05-10T05:44:43.621Z,63.00
2018-05-10T05:47:14.539Z,62.10
2018-05-10T05:49:45.245Z,63.00
2018-05-10T05:52:16.181Z,63.40
2018-05-10T05:54:47.183Z,64.50
2018-05-10T05:57:17.885Z,64.50
2018-05-10T05:59:48.460Z,63.30
2018-05-10T06:02:18.500Z,62.70
2018-05-10T06:04:49.704Z,63.00
2018-05-10T06:07:20.988Z,61.90
2018-05-10T06:09:52.132Z,60.80
2018-05-10T06:12:23.073Z,60.40
2018-05-10T06:14:54.557Z,60.80
2018-05-10T06:17:24.887Z,60.80
2018-05-10T06:19:55.393Z,62.30
2018-05-10T06:22:25.662Z,63.30
2018-05-10T06:24:56.037Z,62.40
2018-05-10T06:27:27.517Z,63.20
2018-05-10T06:29:58.261Z,63.90
2018-05-10T06:32:28.465Z,65.00
2018-05-10T06:34:59.793Z,67.10
2018-05-10T06:37:30.675Z,67.50
2018-05-10T06:40:01.319Z,68.40
2018-05-10T06:42:34.273Z,67.30
2018-05-10T06:45:04.505Z,67.60
2018-05-10T06:47:35.114Z,68.50
2018-05-10T06:50:06.682Z,67.20
2018-05-10T06:52:40.732Z,67.10
2018-05-10T06:55:12.352Z,66.40
2018-05-10T06:57:43.804Z,66.20
2018-05-10T07:00:14.656Z,65.10
2018-05-10T07:02:45.696Z,64.30
2018-05-10T07:05:16.361Z,65.40
2018-05-10T07:07:46.827Z,66.10
2018-05-10T07:10:18.627Z,68.00
2018-05-10T07:12:50.280Z,68.00
2018-05-10T07:15:21.090Z,67.90
2018-05-10T07:17:51.641Z,66.40
2018-05-10T07:20:22.950Z,65.10
2018-05-10T07:22:56.050Z,64.40
2018-05-10T07:25:29.481Z,64.30
2018-05-10T07:28:00.117Z,64.30
2018-05-10T07:30:30.706Z,63.70
2018-05-10T07:33:02.181Z,63.20
2018-05-10T07:35:32.487Z,62.80
2018-05-10T07:38:03.861Z,61.70
2018-05-10T07:40:34.520Z,61.60
2018-05-10T07:43:05.277Z,62.20
2018-05-10T07:45:36.385Z,64.20
2018-05-10T07:48:07.484Z,64.20
2018-05-10T07:50:38.396Z,62.90
2018-05-10T07:53:08.993Z,62.80
2018-05-10T07:55:39.899Z,61.50
2018-05-10T07:58:10.198Z,60.30
2018-05-10T08:00:40.672Z,58.50
2018-05-10T08:03:11.168Z,58.10
2018-05-10T08:05:41.852Z,59.40
2018-05-10T08:08:12.584Z,60.10
2018-05-10T08:10:42.973Z,60.20
2018-05-10T08:13:14.335Z,59.00
2018-05-10T08:15:45.455Z,58.60
2018-05-10T08:18:15.864Z,58.60
2018-05-10T08:20:47.194Z,58.20
2018-05-10T08:23:18.018Z,58.50
2018-05-10T08:25:48.290Z,59.90
2018-05-10T08:28:19.058Z,59.30
2018-05-10T08:30:50.673Z,59.30
2018-05-10T08:33:20.976Z,59.30
2018-05-10T08:35:51.834Z,60.00
2018-05-10T08:38:23.137Z,60.30
2018-05-10T08:40:53.556Z,59.20
2018-05-10T08:43:23.856Z,60.40
2018-05-10T08:45:54.277Z,59.80
2018-05-10T08:48:25.314Z,61.60
2018-05-10T08:50:55.712Z,62.20
2018-05-10T08:53:27.663Z,63.00
2018-05-10T08:55:58.101Z,63.70
2018-05-10T08:58:28.397Z,65.00
2018-05-10T09:00:59.032Z,66.40
2018-05-10T09:03:29.445Z,66.20
2018-05-10T09:05:59.756Z,66.20
2018-05-10T09:08:31.614Z,67.60
2018-05-10T09:11:02.358Z,67.50
2018-05-10T09:13:33.576Z,66.30
2018-05-10T09:16:04.233Z,66.30
2018-05-10T09:18:35.036Z,65.40
2018-05-10T09:21:05.624Z,65.70
2018-05-10T09:23:36.614Z,66.00
2018-05-10T09:26:07.779Z,67.00
2018-05-10T09:28:39.135Z,67.00
2018-05-10T09:31:11.230Z,67.30
2018-05-10T09:33:41.615Z,67.20
2018-05-10T09:36:12.132Z,66.60
2018-05-10T09:38:43.492Z,60.20
2018-05-10T09:41:14.145Z,57.60
2018-05-10T09:43:45.434Z,56.80
2018-05-10T09:46:15.569Z,56.80
2018-05-10T09:48:47.349Z,58.30
2018-05-10T09:51:17.530Z,57.10
2018-05-10T09:57:09.062Z,53.50
2018-05-10T09:59:42.021Z,50.80
2018-05-10T10:02:13.495Z,49.40
2018-05-10T10:04:44.351Z,47.20
2018-05-10T10:07:15.036Z,45.50
2018-05-10T10:09:46.311Z,45.50
2018-05-10T10:12:18.583Z,44.20
2018-05-10T10:14:49.310Z,44.10
2018-05-10T10:17:20.565Z,43.90
2018-05-10T10:19:51.788Z,43.30
2018-05-10T10:22:23.151Z,45.20
2018-05-10T10:24:54.468Z,45.50
2018-05-10T10:27:25.439Z,45.50
2018-05-10T10:29:56.498Z,45.90
2018-05-10T10:32:26.916Z,45.80
2018-05-10T10:34:57.899Z,46.70
2018-05-10T10:37:28.356Z,47.40
2018-05-10T10:39:59.276Z,48.00
2018-05-10T10:42:29.874Z,48.00
2018-05-10T10:45:00.271Z,47.80
2018-05-10T10:47:31.537Z,47.60
2018-05-10T10:50:02.754Z,47.60
2018-05-10T10:52:33.957Z,48.50
2018-05-10T10:55:04.986Z,48.50
2018-05-10T10:57:36.247Z,48.10
2018-05-10T11:00:06.703Z,49.60
2018-05-10T11:02:37.057Z,50.10
2018-05-10T11:05:08.383Z,51.90
2018-05-10T11:07:39.185Z,51.90
2018-05-10T11:10:09.854Z,54.10
2018-05-10T11:12:40.836Z,53.20
2018-05-10T11:15:11.670Z,53.20
2018-05-10T11:17:41.993Z,54.90
2018-05-10T11:20:12.628Z,55.10
2018-05-10T11:22:43.330Z,55.20
2018-05-10T11:25:14.624Z,54.80
2018-05-10T11:27:44.933Z,54.80
2018-05-10T11:30:16.258Z,54.40
2018-05-10T11:32:48.754Z,57.80
2018-05-10T11:35:19.327Z,57.70
2018-05-10T11:37:50.638Z,58.20
2018-05-10T11:40:21.354Z,57.30
2018-05-10T11:42:52.974Z,57.50
2018-05-10T11:45:24.457Z,57.80
2018-05-10T11:47:55.583Z,57.40
2018-05-10T11:50:26.258Z,57.40
2018-05-10T11:52:56.984Z,57.50
2018-05-10T11:55:28.153Z,56.50
2018-05-10T11:57:58.617Z,56.80
2018-05-10T12:00:29.385Z,56.90
2018-05-10T12:03:02.022Z,59.00
2018-05-10T12:05:32.823Z,59.00
2018-05-10T12:08:10.081Z,60.70
2018-05-10T12:10:45.269Z,60.70
2018-05-10T12:13:16.739Z,60.80
2018-05-10T12:15:48.467Z,59.70
2018-05-10T12:18:18.924Z,57.90
2018-05-10T12:20:50.303Z,57.30
2018-05-10T12:23:21.841Z,58.00
2018-05-10T12:25:52.441Z,57.00
2018-05-10T12:28:22.864Z,56.60
2018-05-10T12:30:53.375Z,57.40
2018-05-10T12:33:24.831Z,56.60
2018-05-10T12:35:55.232Z,55.20
2018-05-10T12:38:26.906Z,54.70
2018-05-10T12:40:57.318Z,54.70
2018-05-10T12:43:28.677Z,54.40
2018-05-10T12:46:00.023Z,53.80
2018-05-10T12:48:31.220Z,53.70
2018-05-10T12:51:01.593Z,53.00
2018-05-10T12:53:33.619Z,53.50
2018-05-10T12:56:05.445Z,53.40
2018-05-10T12:58:37.899Z,52.70
2018-05-10T13:01:09.893Z,53.60
2018-05-10T13:03:40.328Z,53.50
2018-05-10T13:06:16.557Z,53.30
2018-05-10T13:08:47.111Z,52.70
2018-05-10T13:11:18.837Z,52.30
2018-05-10T13:13:49.719Z,52.20
2018-05-10T13:16:20.844Z,53.20
2018-05-10T13:18:51.436Z,53.20
2018-05-10T13:21:23.581Z,54.30
2018-05-10T13:23:57.433Z,53.60
2018-05-10T13:26:28.820Z,53.40
2018-05-10T13:28:59.647Z,54.00
2018-05-10T13:31:30.749Z,54.10
2018-05-10T13:34:01.614Z,53.30
2018-05-10T13:36:33.848Z,53.40
2018-05-10T13:39:05.751Z,53.40
2018-05-10T13:41:36.962Z,53.30
2018-05-10T13:44:08.955Z,53.10
2018-05-10T13:46:41.275Z,53.80
2018-05-10T13:49:15.052Z,52.40
2018-05-10T13:51:48.859Z,52.20
2018-05-10T13:54:19.675Z,51.10
2018-05-10T13:56:51.853Z,50.70
2018-05-10T13:59:22.459Z,51.10
2018-05-10T14:01:54.875Z,49.10
2018-05-10T14:04:29.071Z,48.80
2018-05-10T14:06:59.894Z,48.70
2018-05-10T14:09:30.716Z,49.30
2018-05-10T14:12:01.835Z,49.30
2018-05-10T14:14:32.650Z,48.60
2018-05-10T14:17:03.820Z,48.50
2018-05-10T14:19:34.643Z,47.20
2018-05-10T14:22:05.611Z,50.30
2018-05-10T14:24:37.171Z,50.60
2018-05-10T14:27:09.815Z,51.90
2018-05-10T14:29:41.103Z,51.80
2018-05-10T14:32:12.537Z,51.50
2018-05-10T14:34:43.278Z,51.50
2018-05-10T14:37:14.738Z,49.20
2018-05-10T14:39:46.818Z,49.40
2018-05-10T14:42:18.780Z,49.50
2018-05-10T14:44:50.068Z,49.40
2018-05-10T14:47:22.816Z,49.20
2018-05-10T14:49:53.594Z,48.90
2018-05-10T14:52:25.250Z,49.20
2018-05-10T14:54:56.291Z,49.70
2018-05-10T14:57:27.495Z,49.80
2018-05-10T15:00:00.203Z,49.40
2018-05-10T15:02:30.592Z,48.70
2018-05-10T15:05:01.203Z,47.90
2018-05-10T15:07:32.845Z,46.00
2018-05-10T15:10:05.110Z,46.90
2018-05-10T15:12:36.107Z,46.40
2018-05-10T15:15:06.975Z,47.10
2018-05-10T15:17:37.358Z,46.90
2018-05-10T15:20:09.203Z,47.30
2018-05-10T15:22:40.418Z,47.30
2018-05-10T15:25:11.699Z,47.40
2018-05-10T15:27:42.949Z,49.00
2018-05-10T15:30:14.457Z,50.30
2018-05-10T15:32:44.962Z,50.80
2018-05-10T15:35:19.419Z,51.60
2018-05-10T15:37:50.244Z,51.70
2018-05-10T15:40:20.801Z,51.40
2018-05-10T15:42:51.653Z,52.20
2018-05-10T15:45:23.165Z,52.60
2018-05-10T15:47:55.194Z,52.60
2018-05-10T15:50:28.018Z,53.30
2018-05-10T15:52:59.883Z,52.90
2018-05-10T15:55:32.724Z,52.50
2018-05-10T15:58:03.479Z,51.80
2018-05-10T16:00:33.901Z,51.20
2018-05-10T16:03:04.317Z,51.90
2018-05-10T16:05:36.175Z,52.80
2018-05-10T16:08:07.105Z,54.10
2018-05-10T16:10:38.616Z,53.00
2018-05-10T16:13:09.344Z,53.50
2018-05-10T16:15:41.583Z,53.70
2018-05-10T16:18:12.661Z,53.70
2018-05-10T16:20:43.267Z,54.10
2018-05-10T16:23:13.697Z,54.70
2018-05-10T16:25:44.592Z,54.40
2018-05-10T16:28:14.802Z,54.40
2018-05-10T16:30:45.530Z,54.30
2018-05-10T16:33:16.431Z,53.80
2018-05-10T16:35:48.001Z,53.20
2018-05-10T16:38:19.846Z,54.50
2018-05-10T16:40:51.622Z,53.20
2018-05-10T16:43:22.612Z,52.60
2018-05-10T16:45:56.041Z,51.80
2018-05-10T16:48:27.968Z,52.10
2018-05-10T16:50:59.813Z,53.00
2018-05-10T16:53:32.881Z,52.40
2018-05-10T16:56:03.536Z,52.40
2018-05-10T16:58:34.275Z,52.20
2018-05-10T17:01:08.868Z,52.10
2018-05-10T17:03:39.538Z,52.50
2018-05-10T17:06:11.234Z,52.60
2018-05-10T17:08:41.678Z,52.40
2018-05-10T17:11:15.231Z,52.10
2018-05-10T17:13:45.961Z,51.50
2018-05-10T17:16:17.211Z,50.70
2018-05-10T17:18:47.990Z,52.00
2018-05-10T17:21:19.809Z,52.90
2018-05-10T17:23:52.176Z,52.20
2018-05-10T17:26:23.078Z,51.40
2018-05-10T17:28:55.892Z,52.30
2018-05-10T17:31:26.380Z,52.30
2018-05-10T17:33:57.331Z,53.10
2018-05-10T17:36:28.545Z,52.10
2018-05-10T17:38:59.437Z,52.80
2018-05-10T17:41:30.866Z,52.20
2018-05-10T17:44:02.146Z,52.20
2018-05-10T17:46:32.789Z,51.20
2018-05-10T17:49:03.310Z,52.20
2018-05-10T17:51:37.170Z,52.60
2018-05-10T17:54:07.607Z,52.60
2018-05-10T17:56:38.496Z,52.70
2018-05-10T17:59:09.398Z,53.10
2018-05-10T18:01:40.259Z,52.90
2018-05-10T18:04:14.012Z,53.10
2018-05-10T18:06:46.142Z,52.80
2018-05-10T18:09:18.503Z,53.00
2018-05-10T18:11:51.681Z,54.50
2018-05-10T18:14:24.963Z,53.20
2018-05-10T18:17:00.458Z,52.40
2018-05-10T18:19:33.555Z,53.30
2018-05-10T18:22:07.150Z,53.40
2018-05-10T18:24:38.294Z,53.40
2018-05-10T18:27:09.180Z,52.80
2018-05-10T18:29:40.433Z,55.40
2018-05-10T18:32:10.892Z,53.60
2018-05-10T18:34:41.572Z,53.00
2018-05-10T18:37:12.520Z,53.70
2018-05-10T18:39:42.984Z,51.90
2018-05-10T18:42:13.421Z,51.40
2018-05-10T18:44:44.047Z,51.70
2018-05-10T18:47:16.071Z,53.40
2018-05-10T18:49:46.755Z,51.60
2018-05-10T18:52:17.328Z,51.20
2018-05-10T18:54:47.912Z,51.70
2018-05-10T18:57:18.476Z,51.50
2018-05-10T18:59:49.845Z,51.90
2018-05-10T19:02:21.583Z,51.80
2018-05-10T19:04:52.367Z,51.80
2018-05-10T19:07:22.987Z,51.90
2018-05-10T19:09:53.818Z,51.50
2018-05-10T19:12:24.283Z,51.40
2018-05-10T19:14:55.221Z,51.50
2018-05-10T19:17:25.972Z,52.20
2018-05-10T19:19:57.979Z,53.00
2018-05-10T19:22:29.542Z,53.40
2018-05-10T19:25:01.358Z,53.80
2018-05-10T19:27:32.395Z,53.80
2018-05-10T19:30:02.942Z,54.40
2018-05-10T19:32:33.701Z,54.50
2018-05-10T19:35:05.053Z,55.20
2018-05-10T19:37:35.521Z,55.20
2018-05-10T19:40:06.459Z,55.50
2018-05-10T19:42:38.638Z,54.90
2018-05-10T19:45:09.464Z,54.80
2018-05-10T19:47:41.539Z,56.60
2018-05-10T19:50:14.382Z,56.60
2018-05-10T19:52:44.958Z,56.90
2018-05-10T19:55:15.626Z,56.90
2018-05-10T19:57:47.288Z,59.00
2018-05-10T20:00:17.530Z,59.10
2018-05-10T20:02:48.295Z,58.80
2018-05-10T20:05:19.103Z,58.70
2018-05-10T20:07:50.021Z,57.20
2018-05-10T20:10:21.785Z,56.70
2018-05-10T20:12:52.552Z,54.80
2018-05-10T20:15:23.023Z,56.10
2018-05-10T20:17:53.887Z,56.00
2018-05-10T20:20:24.500Z,55.60
2018-05-10T20:22:55.933Z,57.60
2018-05-10T20:25:27.862Z,57.60
2018-05-10T20:27:59.078Z,57.80
2018-05-10T20:30:29.650Z,58.50
2018-05-10T20:33:01.237Z,58.60
2018-05-10T20:35:31.662Z,59.00
2018-05-10T20:38:02.200Z,61.10
2018-05-10T20:40:33.425Z,63.40
2018-05-10T20:43:03.878Z,62.60
2018-05-10T20:45:34.132Z,61.90
2018-05-10T20:48:04.538Z,63.30
2018-05-10T20:50:35.852Z,61.80
2018-05-10T20:53:07.507Z,61.80
2018-05-10T20:55:38.043Z,61.80
2018-05-10T20:58:09.051Z,61.00
2018-05-10T21:00:39.755Z,61.90
2018-05-10T21:03:11.060Z,61.00
2018-05-10T21:05:41.630Z,61.00
2018-05-10T21:08:12.044Z,59.60
2018-05-10T21:10:43.748Z,58.50
2018-05-10T21:13:14.717Z,58.50
2018-05-10T21:15:44.794Z,58.80
2018-05-10T21:18:16.539Z,59.80
2018-05-10T21:20:47.951Z,59.90
2018-05-10T21:23:20.388Z,59.30
2018-05-10T21:25:50.902Z,59.50
2018-05-10T21:28:21.222Z,60.00
2018-05-10T21:30:52.782Z,60.70
2018-05-10T21:33:23.750Z,59.60
2018-05-10T21:35:54.358Z,59.70
2018-05-10T21:38:26.322Z,61.50
2018-05-10T21:40:57.274Z,63.30
2018-05-10T21:43:27.685Z,63.20
2018-05-10T21:46:01.633Z,63.30
2018-05-10T21:48:32.068Z,62.50
2018-05-10T21:51:03.198Z,62.80
2018-05-10T21:53:33.472Z,62.10
2018-05-10T21:56:06.677Z,60.80
2018-05-10T21:58:37.343Z,60.80
2018-05-10T22:01:07.871Z,60.80
2018-05-10T22:03:39.225Z,61.50
2018-05-10T22:06:09.395Z,61.30
2018-05-10T22:08:40.372Z,61.80
2018-05-10T22:11:12.033Z,62.10
2018-05-10T22:13:44.072Z,61.30
2018-05-10T22:16:15.572Z,61.70
2018-05-10T22:18:46.368Z,61.70
2018-05-10T22:21:17.948Z,62.20
2018-05-10T22:23:48.411Z,62.50
2018-05-10T22:26:18.807Z,62.50
2018-05-10T22:28:49.353Z,62.50
2018-05-10T22:31:19.798Z,61.80
2018-05-10T22:33:57.633Z,63.90
2018-05-10T22:36:29.386Z,64.80
2018-05-10T22:39:00.963Z,64.70
2018-05-10T22:41:32.104Z,65.60
2018-05-10T22:44:03.186Z,66.80
2018-05-10T22:46:33.811Z,66.00
2018-05-10T22:49:04.562Z,66.60
2018-05-10T22:51:34.928Z,65.50
2018-05-10T22:54:06.096Z,65.00
2018-05-10T22:56:36.954Z,64.60
2018-05-10T22:59:07.821Z,64.20
2018-05-10T23:01:39.071Z,64.30
2018-05-10T23:04:11.923Z,62.50
2018-05-10T23:06:42.180Z,62.40
2018-05-10T23:09:15.014Z,62.50
2018-05-10T23:11:45.495Z,62.60
2018-05-10T23:14:17.064Z,65.00
2018-05-10T23:16:47.600Z,65.00
2018-05-10T23:19:18.683Z,65.60
2018-05-10T23:21:49.340Z,66.70
2018-05-10T23:24:19.707Z,66.70
2018-05-10T23:26:49.982Z,65.20
2018-05-10T23:29:20.717Z,63.50
2018-05-10T23:31:51.040Z,63.30
2018-05-10T23:34:21.841Z,62.70
2018-05-10T23:36:52.574Z,64.00
2018-05-10T23:39:22.690Z,64.00
2018-05-10T23:41:53.078Z,63.80
2018-05-10T23:44:23.991Z,65.00
2018-05-10T23:46:54.155Z,65.00
2018-05-10T23:49:25.786Z,64.20
2018-05-10T23:51:56.060Z,64.20
2018-05-10T23:54:26.127Z,63.40
2018-05-10T23:56:57.295Z,65.50
2018-05-10T23:59:28.678Z,65.70
